sensor_id;sensor_type;location;lat;lon;timestamp;P1;durP1;ratioP1;P2;durP2;ratioP2
24567;SDS011;12731;52.182;8.716;2024-03-25T00:00:44;9.05;;;3.00;;
24567;SDS011;12731;52.182;8.716;2024-03-25T00:03:09;6.43;;;2.10;;
24567;SDS011;12731;52.182;8.716;2024-03-25T00:05:35;7.88;;;1.73;;
24567;SDS011;12731;52.182;8.716;2024-03-25T00:08:00;9.77;;;2.72;;
24567;SDS011;12731;52.182;8.716;2024-03-25T00:10:26;9.88;;;2.70;;
24567;SDS011;12731;52.182;8.716;2024-03-25T00:12:53;5.47;;;2.72;;
24567;SDS011;12731;52.182;8.716;2024-03-25T00:15:20;6.32;;;2.30;;
24567;SDS011;12731;52.182;8.716;2024-03-25T00:17:46;11.65;;;2.72;;
24567;SDS011;12731;52.182;8.716;2024-03-25T00:20:12;12.55;;;3.20;;
24567;SDS011;12731;52.182;8.716;2024-03-25T00:22:38;16.50;;;3.47;;
24567;SDS011;12731;52.182;8.716;2024-03-25T00:25:04;17.10;;;3.72;;
24567;SDS011;12731;52.182;8.716;2024-03-25T00:27:30;19.77;;;4.22;;
24567;SDS011;12731;52.182;8.716;2024-03-25T00:29:55;15.60;;;3.72;;
24567;SDS011;12731;52.182;8.716;2024-03-25T00:32:21;15.48;;;3.67;;
24567;SDS011;12731;52.182;8.716;2024-03-25T00:34:46;13.98;;;4.72;;
24567;SDS011;12731;52.182;8.716;2024-03-25T00:37:12;18.48;;;4.35;;
24567;SDS011;12731;52.182;8.716;2024-03-25T00:39:37;17.85;;;5.32;;
24567;SDS011;12731;52.182;8.716;2024-03-25T00:42:03;20.20;;;4.95;;
24567;SDS011;12731;52.182;8.716;2024-03-25T00:44:29;15.02;;;4.18;;
24567;SDS011;12731;52.182;8.716;2024-03-25T00:46:55;14.73;;;4.88;;
24567;SDS011;12731;52.182;8.716;2024-03-25T00:49:20;15.93;;;5.13;;
24567;SDS011;12731;52.182;8.716;2024-03-25T00:51:47;16.00;;;4.35;;
24567;SDS011;12731;52.182;8.716;2024-03-25T00:54:12;13.57;;;4.70;;
24567;SDS011;12731;52.182;8.716;2024-03-25T00:56:38;17.23;;;4.95;;
24567;SDS011;12731;52.182;8.716;2024-03-25T00:59:03;16.52;;;5.35;;
24567;SDS011;12731;52.182;8.716;2024-03-25T01:01:29;15.88;;;5.13;;
24567;SDS011;12731;52.182;8.716;2024-03-25T01:03:55;22.65;;;4.20;;
24567;SDS011;12731;52.182;8.716;2024-03-25T01:06:20;13.60;;;3.42;;
24567;SDS011;12731;52.182;8.716;2024-03-25T01:08:46;15.18;;;3.65;;
24567;SDS011;12731;52.182;8.716;2024-03-25T01:11:11;19.55;;;3.70;;
24567;SDS011;12731;52.182;8.716;2024-03-25T01:13:37;14.82;;;3.28;;
24567;SDS011;12731;52.182;8.716;2024-03-25T01:16:03;16.00;;;3.47;;
24567;SDS011;12731;52.182;8.716;2024-03-25T01:18:28;13.82;;;3.53;;
24567;SDS011;12731;52.182;8.716;2024-03-25T01:20:54;12.18;;;3.20;;
24567;SDS011;12731;52.182;8.716;2024-03-25T01:23:20;12.77;;;3.03;;
24567;SDS011;12731;52.182;8.716;2024-03-25T01:25:45;20.77;;;4.03;;
24567;SDS011;12731;52.182;8.716;2024-03-25T01:28:11;20.08;;;3.38;;
24567;SDS011;12731;52.182;8.716;2024-03-25T01:30:36;13.48;;;3.53;;
24567;SDS011;12731;52.182;8.716;2024-03-25T01:33:04;15.82;;;3.75;;
24567;SDS011;12731;52.182;8.716;2024-03-25T01:35:30;14.90;;;2.92;;
24567;SDS011;12731;52.182;8.716;2024-03-25T01:37:56;15.07;;;3.30;;
24567;SDS011;12731;52.182;8.716;2024-03-25T01:40:22;14.50;;;3.65;;
24567;SDS011;12731;52.182;8.716;2024-03-25T01:43:00;13.23;;;3.85;;
24567;SDS011;12731;52.182;8.716;2024-03-25T01:45:27;19.20;;;4.50;;
24567;SDS011;12731;52.182;8.716;2024-03-25T01:47:59;18.67;;;5.65;;
24567;SDS011;12731;52.182;8.716;2024-03-25T01:50:27;18.38;;;4.07;;
24567;SDS011;12731;52.182;8.716;2024-03-25T01:52:53;18.30;;;3.78;;
24567;SDS011;12731;52.182;8.716;2024-03-25T01:55:23;15.98;;;3.83;;
24567;SDS011;12731;52.182;8.716;2024-03-25T01:57:50;21.15;;;4.00;;
24567;SDS011;12731;52.182;8.716;2024-03-25T02:00:16;16.40;;;4.15;;
24567;SDS011;12731;52.182;8.716;2024-03-25T02:02:42;16.15;;;3.95;;
24567;SDS011;12731;52.182;8.716;2024-03-25T02:05:09;16.20;;;4.30;;
24567;SDS011;12731;52.182;8.716;2024-03-25T02:07:36;15.55;;;4.78;;
24567;SDS011;12731;52.182;8.716;2024-03-25T02:10:07;9.75;;;4.32;;
24567;SDS011;12731;52.182;8.716;2024-03-25T02:12:35;19.45;;;6.20;;
24567;SDS011;12731;52.182;8.716;2024-03-25T02:15:01;17.02;;;5.18;;
24567;SDS011;12731;52.182;8.716;2024-03-25T02:17:26;21.77;;;4.70;;
24567;SDS011;12731;52.182;8.716;2024-03-25T02:19:52;19.45;;;4.78;;
24567;SDS011;12731;52.182;8.716;2024-03-25T02:22:18;18.48;;;4.80;;
24567;SDS011;12731;52.182;8.716;2024-03-25T02:24:44;17.48;;;4.03;;
24567;SDS011;12731;52.182;8.716;2024-03-25T02:27:10;17.10;;;3.92;;
24567;SDS011;12731;52.182;8.716;2024-03-25T02:29:39;18.63;;;3.83;;
24567;SDS011;12731;52.182;8.716;2024-03-25T02:32:06;15.85;;;3.35;;
24567;SDS011;12731;52.182;8.716;2024-03-25T02:34:32;17.38;;;4.05;;
24567;SDS011;12731;52.182;8.716;2024-03-25T02:36:58;14.57;;;3.65;;
24567;SDS011;12731;52.182;8.716;2024-03-25T02:39:24;17.17;;;3.65;;
24567;SDS011;12731;52.182;8.716;2024-03-25T02:41:49;15.45;;;3.55;;
24567;SDS011;12731;52.182;8.716;2024-03-25T02:44:15;20.38;;;4.22;;
24567;SDS011;12731;52.182;8.716;2024-03-25T02:46:41;18.58;;;4.05;;
24567;SDS011;12731;52.182;8.716;2024-03-25T02:49:06;16.58;;;4.35;;
24567;SDS011;12731;52.182;8.716;2024-03-25T02:51:32;14.88;;;4.03;;
24567;SDS011;12731;52.182;8.716;2024-03-25T02:53:57;17.13;;;4.50;;
24567;SDS011;12731;52.182;8.716;2024-03-25T02:56:23;18.40;;;4.43;;
24567;SDS011;12731;52.182;8.716;2024-03-25T02:58:48;16.40;;;3.85;;
24567;SDS011;12731;52.182;8.716;2024-03-25T03:01:15;12.13;;;4.53;;
24567;SDS011;12731;52.182;8.716;2024-03-25T03:03:41;17.08;;;4.07;;
24567;SDS011;12731;52.182;8.716;2024-03-25T03:06:06;13.75;;;3.90;;
24567;SDS011;12731;52.182;8.716;2024-03-25T03:08:32;16.77;;;4.13;;
24567;SDS011;12731;52.182;8.716;2024-03-25T03:10:57;14.20;;;4.13;;
24567;SDS011;12731;52.182;8.716;2024-03-25T03:13:23;21.05;;;3.60;;
24567;SDS011;12731;52.182;8.716;2024-03-25T03:15:48;16.17;;;3.72;;
24567;SDS011;12731;52.182;8.716;2024-03-25T03:18:14;16.23;;;3.45;;
24567;SDS011;12731;52.182;8.716;2024-03-25T03:20:39;15.18;;;3.80;;
24567;SDS011;12731;52.182;8.716;2024-03-25T03:23:05;17.25;;;3.85;;
24567;SDS011;12731;52.182;8.716;2024-03-25T03:25:30;13.98;;;3.28;;
24567;SDS011;12731;52.182;8.716;2024-03-25T03:27:56;15.32;;;4.10;;
24567;SDS011;12731;52.182;8.716;2024-03-25T03:30:22;17.05;;;3.75;;
24567;SDS011;12731;52.182;8.716;2024-03-25T03:32:47;14.88;;;3.70;;
24567;SDS011;12731;52.182;8.716;2024-03-25T03:35:12;15.80;;;4.10;;
24567;SDS011;12731;52.182;8.716;2024-03-25T03:37:38;11.10;;;3.30;;
24567;SDS011;12731;52.182;8.716;2024-03-25T03:40:04;15.50;;;4.05;;
24567;SDS011;12731;52.182;8.716;2024-03-25T03:42:33;13.00;;;3.80;;
24567;SDS011;12731;52.182;8.716;2024-03-25T03:44:59;21.30;;;4.35;;
24567;SDS011;12731;52.182;8.716;2024-03-25T03:47:24;21.75;;;4.32;;
24567;SDS011;12731;52.182;8.716;2024-03-25T03:49:50;13.80;;;3.40;;
24567;SDS011;12731;52.182;8.716;2024-03-25T03:52:15;18.92;;;4.53;;
24567;SDS011;12731;52.182;8.716;2024-03-25T03:54:41;15.50;;;4.40;;
24567;SDS011;12731;52.182;8.716;2024-03-25T03:57:06;18.23;;;4.10;;
24567;SDS011;12731;52.182;8.716;2024-03-25T03:59:32;14.43;;;4.72;;
24567;SDS011;12731;52.182;8.716;2024-03-25T04:01:57;11.57;;;3.90;;
24567;SDS011;12731;52.182;8.716;2024-03-25T04:04:23;16.00;;;4.18;;
24567;SDS011;12731;52.182;8.716;2024-03-25T04:06:48;17.08;;;3.70;;
24567;SDS011;12731;52.182;8.716;2024-03-25T04:09:14;16.83;;;4.28;;
24567;SDS011;12731;52.182;8.716;2024-03-25T04:11:39;13.68;;;4.10;;
24567;SDS011;12731;52.182;8.716;2024-03-25T04:14:05;19.48;;;4.13;;
24567;SDS011;12731;52.182;8.716;2024-03-25T04:16:30;16.90;;;4.78;;
24567;SDS011;12731;52.182;8.716;2024-03-25T04:18:56;12.60;;;3.72;;
24567;SDS011;12731;52.182;8.716;2024-03-25T04:21:22;17.20;;;4.20;;
24567;SDS011;12731;52.182;8.716;2024-03-25T04:23:48;18.10;;;4.43;;
24567;SDS011;12731;52.182;8.716;2024-03-25T04:26:14;15.48;;;4.22;;
24567;SDS011;12731;52.182;8.716;2024-03-25T04:28:40;15.23;;;4.57;;
24567;SDS011;12731;52.182;8.716;2024-03-25T04:31:07;16.52;;;4.15;;
24567;SDS011;12731;52.182;8.716;2024-03-25T04:33:33;13.75;;;4.07;;
24567;SDS011;12731;52.182;8.716;2024-03-25T04:35:59;13.90;;;4.35;;
24567;SDS011;12731;52.182;8.716;2024-03-25T04:38:24;15.68;;;4.15;;
24567;SDS011;12731;52.182;8.716;2024-03-25T04:40:50;16.50;;;4.18;;
24567;SDS011;12731;52.182;8.716;2024-03-25T04:43:16;15.65;;;3.95;;
24567;SDS011;12731;52.182;8.716;2024-03-25T04:45:41;15.98;;;4.03;;
24567;SDS011;12731;52.182;8.716;2024-03-25T04:48:07;19.88;;;4.95;;
24567;SDS011;12731;52.182;8.716;2024-03-25T04:50:35;17.23;;;4.35;;
24567;SDS011;12731;52.182;8.716;2024-03-25T04:53:01;15.73;;;4.00;;
24567;SDS011;12731;52.182;8.716;2024-03-25T04:55:26;20.75;;;4.45;;
24567;SDS011;12731;52.182;8.716;2024-03-25T04:57:52;17.05;;;3.72;;
24567;SDS011;12731;52.182;8.716;2024-03-25T05:00:18;15.07;;;4.07;;
24567;SDS011;12731;52.182;8.716;2024-03-25T05:02:43;18.23;;;3.50;;
24567;SDS011;12731;52.182;8.716;2024-03-25T05:05:09;16.48;;;3.78;;
24567;SDS011;12731;52.182;8.716;2024-03-25T05:07:35;17.05;;;3.38;;
24567;SDS011;12731;52.182;8.716;2024-03-25T05:10:01;19.30;;;4.32;;
24567;SDS011;12731;52.182;8.716;2024-03-25T05:12:26;18.73;;;3.72;;
24567;SDS011;12731;52.182;8.716;2024-03-25T05:14:58;13.98;;;3.38;;
24567;SDS011;12731;52.182;8.716;2024-03-25T05:17:23;21.92;;;4.32;;
24567;SDS011;12731;52.182;8.716;2024-03-25T05:19:49;20.60;;;4.07;;
24567;SDS011;12731;52.182;8.716;2024-03-25T05:22:14;13.93;;;4.00;;
24567;SDS011;12731;52.182;8.716;2024-03-25T05:24:40;23.23;;;4.40;;
24567;SDS011;12731;52.182;8.716;2024-03-25T05:27:05;17.55;;;4.32;;
24567;SDS011;12731;52.182;8.716;2024-03-25T05:29:31;19.23;;;4.18;;
24567;SDS011;12731;52.182;8.716;2024-03-25T05:31:57;13.68;;;3.53;;
24567;SDS011;12731;52.182;8.716;2024-03-25T05:34:24;17.83;;;4.22;;
24567;SDS011;12731;52.182;8.716;2024-03-25T05:36:52;16.00;;;3.72;;
24567;SDS011;12731;52.182;8.716;2024-03-25T05:39:17;14.05;;;3.60;;
24567;SDS011;12731;52.182;8.716;2024-03-25T05:41:43;16.70;;;3.85;;
24567;SDS011;12731;52.182;8.716;2024-03-25T05:44:09;24.00;;;4.43;;
24567;SDS011;12731;52.182;8.716;2024-03-25T05:46:34;13.85;;;3.63;;
24567;SDS011;12731;52.182;8.716;2024-03-25T05:49:03;14.13;;;3.80;;
24567;SDS011;12731;52.182;8.716;2024-03-25T05:51:32;19.95;;;4.68;;
24567;SDS011;12731;52.182;8.716;2024-03-25T05:53:58;19.17;;;4.10;;
24567;SDS011;12731;52.182;8.716;2024-03-25T05:56:24;19.10;;;4.13;;
24567;SDS011;12731;52.182;8.716;2024-03-25T05:58:56;19.35;;;4.30;;
24567;SDS011;12731;52.182;8.716;2024-03-25T06:01:22;17.10;;;4.07;;
24567;SDS011;12731;52.182;8.716;2024-03-25T06:03:47;14.07;;;3.50;;
24567;SDS011;12731;52.182;8.716;2024-03-25T06:06:13;16.90;;;3.88;;
24567;SDS011;12731;52.182;8.716;2024-03-25T06:08:38;13.18;;;3.50;;
24567;SDS011;12731;52.182;8.716;2024-03-25T06:11:04;17.38;;;4.07;;
24567;SDS011;12731;52.182;8.716;2024-03-25T06:13:29;21.48;;;4.32;;
24567;SDS011;12731;52.182;8.716;2024-03-25T06:15:55;18.38;;;3.78;;
24567;SDS011;12731;52.182;8.716;2024-03-25T06:18:21;17.52;;;4.35;;
24567;SDS011;12731;52.182;8.716;2024-03-25T06:20:46;16.35;;;4.05;;
24567;SDS011;12731;52.182;8.716;2024-03-25T06:23:24;14.35;;;4.85;;
24567;SDS011;12731;52.182;8.716;2024-03-25T06:25:51;18.25;;;4.40;;
24567;SDS011;12731;52.182;8.716;2024-03-25T06:28:18;18.83;;;4.57;;
24567;SDS011;12731;52.182;8.716;2024-03-25T06:30:44;20.55;;;4.30;;
24567;SDS011;12731;52.182;8.716;2024-03-25T06:33:28;16.02;;;4.20;;
24567;SDS011;12731;52.182;8.716;2024-03-25T06:36:13;21.17;;;4.57;;
24567;SDS011;12731;52.182;8.716;2024-03-25T06:38:38;19.88;;;4.00;;
24567;SDS011;12731;52.182;8.716;2024-03-25T06:41:04;12.75;;;3.70;;
24567;SDS011;12731;52.182;8.716;2024-03-25T06:43:29;19.17;;;4.00;;
24567;SDS011;12731;52.182;8.716;2024-03-25T06:45:55;15.88;;;3.90;;
24567;SDS011;12731;52.182;8.716;2024-03-25T06:48:20;23.05;;;4.00;;
24567;SDS011;12731;52.182;8.716;2024-03-25T06:50:55;15.05;;;3.92;;
24567;SDS011;12731;52.182;8.716;2024-03-25T06:53:22;19.40;;;4.38;;
24567;SDS011;12731;52.182;8.716;2024-03-25T06:55:51;16.25;;;4.20;;
24567;SDS011;12731;52.182;8.716;2024-03-25T06:58:18;23.83;;;4.72;;
24567;SDS011;12731;52.182;8.716;2024-03-25T07:00:46;20.17;;;4.68;;
24567;SDS011;12731;52.182;8.716;2024-03-25T07:03:14;18.02;;;4.25;;
24567;SDS011;12731;52.182;8.716;2024-03-25T07:05:46;14.40;;;4.53;;
24567;SDS011;12731;52.182;8.716;2024-03-25T07:08:12;18.02;;;4.40;;
24567;SDS011;12731;52.182;8.716;2024-03-25T07:10:38;18.80;;;4.22;;
24567;SDS011;12731;52.182;8.716;2024-03-25T07:13:03;14.35;;;3.85;;
24567;SDS011;12731;52.182;8.716;2024-03-25T07:15:31;17.13;;;4.25;;
24567;SDS011;12731;52.182;8.716;2024-03-25T07:17:56;26.02;;;5.10;;
24567;SDS011;12731;52.182;8.716;2024-03-25T07:20:23;18.88;;;4.60;;
24567;SDS011;12731;52.182;8.716;2024-03-25T07:22:48;20.55;;;4.43;;
24567;SDS011;12731;52.182;8.716;2024-03-25T07:25:14;16.63;;;4.25;;
24567;SDS011;12731;52.182;8.716;2024-03-25T07:27:39;20.48;;;4.32;;
24567;SDS011;12731;52.182;8.716;2024-03-25T07:30:06;17.95;;;4.05;;
24567;SDS011;12731;52.182;8.716;2024-03-25T07:32:32;16.90;;;4.55;;
24567;SDS011;12731;52.182;8.716;2024-03-25T07:34:58;18.05;;;5.18;;
24567;SDS011;12731;52.182;8.716;2024-03-25T07:37:24;16.45;;;4.57;;
24567;SDS011;12731;52.182;8.716;2024-03-25T07:39:49;17.45;;;5.10;;
24567;SDS011;12731;52.182;8.716;2024-03-25T07:42:15;17.50;;;4.55;;
24567;SDS011;12731;52.182;8.716;2024-03-25T07:44:40;15.55;;;4.35;;
24567;SDS011;12731;52.182;8.716;2024-03-25T07:47:05;22.60;;;4.78;;
24567;SDS011;12731;52.182;8.716;2024-03-25T07:49:31;17.77;;;4.63;;
24567;SDS011;12731;52.182;8.716;2024-03-25T07:51:59;17.00;;;3.97;;
24567;SDS011;12731;52.182;8.716;2024-03-25T07:54:25;20.30;;;4.65;;
24567;SDS011;12731;52.182;8.716;2024-03-25T07:56:52;14.40;;;4.70;;
24567;SDS011;12731;52.182;8.716;2024-03-25T07:59:18;18.05;;;4.65;;
24567;SDS011;12731;52.182;8.716;2024-03-25T08:01:44;20.77;;;5.13;;
24567;SDS011;12731;52.182;8.716;2024-03-25T08:04:09;17.58;;;5.70;;
24567;SDS011;12731;52.182;8.716;2024-03-25T08:06:35;17.75;;;5.57;;
24567;SDS011;12731;52.182;8.716;2024-03-25T08:09:00;19.00;;;4.57;;
24567;SDS011;12731;52.182;8.716;2024-03-25T08:11:26;13.40;;;4.38;;
24567;SDS011;12731;52.182;8.716;2024-03-25T08:13:52;15.18;;;4.60;;
24567;SDS011;12731;52.182;8.716;2024-03-25T08:16:17;17.40;;;4.68;;
24567;SDS011;12731;52.182;8.716;2024-03-25T08:18:45;17.15;;;4.43;;
24567;SDS011;12731;52.182;8.716;2024-03-25T08:21:10;14.60;;;4.32;;
24567;SDS011;12731;52.182;8.716;2024-03-25T08:23:36;19.13;;;4.60;;
24567;SDS011;12731;52.182;8.716;2024-03-25T08:26:01;14.18;;;4.38;;
24567;SDS011;12731;52.182;8.716;2024-03-25T08:28:27;17.33;;;4.40;;
24567;SDS011;12731;52.182;8.716;2024-03-25T08:30:53;18.65;;;3.95;;
24567;SDS011;12731;52.182;8.716;2024-03-25T08:33:18;16.00;;;3.85;;
24567;SDS011;12731;52.182;8.716;2024-03-25T08:35:44;16.40;;;4.47;;
24567;SDS011;12731;52.182;8.716;2024-03-25T08:38:09;14.95;;;3.53;;
24567;SDS011;12731;52.182;8.716;2024-03-25T08:40:35;13.57;;;3.67;;
24567;SDS011;12731;52.182;8.716;2024-03-25T08:43:00;16.10;;;3.78;;
24567;SDS011;12731;52.182;8.716;2024-03-25T08:45:26;14.05;;;4.00;;
24567;SDS011;12731;52.182;8.716;2024-03-25T08:47:52;15.60;;;3.78;;
24567;SDS011;12731;52.182;8.716;2024-03-25T08:50:17;16.73;;;4.07;;
24567;SDS011;12731;52.182;8.716;2024-03-25T08:52:43;19.45;;;3.60;;
24567;SDS011;12731;52.182;8.716;2024-03-25T08:55:08;15.52;;;4.15;;
24567;SDS011;12731;52.182;8.716;2024-03-25T08:57:34;12.10;;;3.05;;
24567;SDS011;12731;52.182;8.716;2024-03-25T09:00:00;14.45;;;3.85;;
24567;SDS011;12731;52.182;8.716;2024-03-25T09:02:25;13.45;;;3.92;;
24567;SDS011;12731;52.182;8.716;2024-03-25T09:04:51;14.57;;;3.70;;
24567;SDS011;12731;52.182;8.716;2024-03-25T09:07:18;19.00;;;3.92;;
24567;SDS011;12731;52.182;8.716;2024-03-25T09:09:43;16.30;;;4.00;;
24567;SDS011;12731;52.182;8.716;2024-03-25T09:12:27;19.23;;;4.70;;
24567;SDS011;12731;52.182;8.716;2024-03-25T09:14:53;10.57;;;3.33;;
24567;SDS011;12731;52.182;8.716;2024-03-25T09:17:18;16.25;;;4.05;;
24567;SDS011;12731;52.182;8.716;2024-03-25T09:19:44;13.02;;;3.45;;
24567;SDS011;12731;52.182;8.716;2024-03-25T09:22:09;10.35;;;3.35;;
24567;SDS011;12731;52.182;8.716;2024-03-25T09:24:35;14.85;;;3.30;;
24567;SDS011;12731;52.182;8.716;2024-03-25T09:27:01;13.75;;;3.35;;
24567;SDS011;12731;52.182;8.716;2024-03-25T09:29:26;10.45;;;2.83;;
24567;SDS011;12731;52.182;8.716;2024-03-25T09:31:52;11.35;;;2.72;;
24567;SDS011;12731;52.182;8.716;2024-03-25T09:34:17;15.18;;;2.90;;
24567;SDS011;12731;52.182;8.716;2024-03-25T09:36:43;10.98;;;2.97;;
24567;SDS011;12731;52.182;8.716;2024-03-25T09:39:08;10.88;;;3.15;;
24567;SDS011;12731;52.182;8.716;2024-03-25T09:41:35;13.00;;;2.80;;
24567;SDS011;12731;52.182;8.716;2024-03-25T09:44:01;16.35;;;3.20;;
24567;SDS011;12731;52.182;8.716;2024-03-25T09:46:30;8.65;;;2.47;;
24567;SDS011;12731;52.182;8.716;2024-03-25T09:48:56;11.93;;;2.40;;
24567;SDS011;12731;52.182;8.716;2024-03-25T09:51:21;11.98;;;2.50;;
24567;SDS011;12731;52.182;8.716;2024-03-25T09:53:47;10.77;;;2.45;;
24567;SDS011;12731;52.182;8.716;2024-03-25T09:56:13;11.48;;;2.75;;
24567;SDS011;12731;52.182;8.716;2024-03-25T09:58:39;9.27;;;2.40;;
24567;SDS011;12731;52.182;8.716;2024-03-25T10:01:05;8.13;;;2.30;;
24567;SDS011;12731;52.182;8.716;2024-03-25T10:03:30;13.90;;;3.40;;
24567;SDS011;12731;52.182;8.716;2024-03-25T10:05:56;10.75;;;2.80;;
24567;SDS011;12731;52.182;8.716;2024-03-25T10:08:21;8.65;;;2.78;;
24567;SDS011;12731;52.182;8.716;2024-03-25T10:10:47;13.05;;;2.60;;
24567;SDS011;12731;52.182;8.716;2024-03-25T10:13:13;10.77;;;2.67;;
24567;SDS011;12731;52.182;8.716;2024-03-25T10:15:38;9.52;;;2.30;;
24567;SDS011;12731;52.182;8.716;2024-03-25T10:18:04;10.02;;;3.17;;
24567;SDS011;12731;52.182;8.716;2024-03-25T10:20:29;8.95;;;2.63;;
24567;SDS011;12731;52.182;8.716;2024-03-25T10:22:55;13.85;;;3.10;;
24567;SDS011;12731;52.182;8.716;2024-03-25T10:25:27;10.65;;;2.60;;
24567;SDS011;12731;52.182;8.716;2024-03-25T10:30:23;7.53;;;2.65;;
24567;SDS011;12731;52.182;8.716;2024-03-25T10:35:31;5.70;;;1.98;;
24567;SDS011;12731;52.182;8.716;2024-03-25T10:38:00;12.25;;;2.85;;
24567;SDS011;12731;52.182;8.716;2024-03-25T10:40:29;10.95;;;2.50;;
24567;SDS011;12731;52.182;8.716;2024-03-25T10:43:02;9.70;;;2.88;;
24567;SDS011;12731;52.182;8.716;2024-03-25T10:45:35;9.85;;;3.17;;
24567;SDS011;12731;52.182;8.716;2024-03-25T10:50:38;7.32;;;2.47;;
24567;SDS011;12731;52.182;8.716;2024-03-25T10:53:04;8.30;;;2.50;;
24567;SDS011;12731;52.182;8.716;2024-03-25T10:55:31;8.98;;;2.85;;
24567;SDS011;12731;52.182;8.716;2024-03-25T10:57:57;12.45;;;2.78;;
24567;SDS011;12731;52.182;8.716;2024-03-25T11:00:22;10.40;;;2.47;;
24567;SDS011;12731;52.182;8.716;2024-03-25T11:02:48;9.65;;;2.65;;
24567;SDS011;12731;52.182;8.716;2024-03-25T11:05:14;9.32;;;2.63;;
24567;SDS011;12731;52.182;8.716;2024-03-25T11:07:40;11.75;;;2.80;;
24567;SDS011;12731;52.182;8.716;2024-03-25T11:10:08;5.93;;;2.60;;
24567;SDS011;12731;52.182;8.716;2024-03-25T11:12:38;7.65;;;2.20;;
24567;SDS011;12731;52.182;8.716;2024-03-25T11:15:05;12.80;;;2.55;;
24567;SDS011;12731;52.182;8.716;2024-03-25T11:17:32;9.43;;;2.65;;
24567;SDS011;12731;52.182;8.716;2024-03-25T11:22:47;9.80;;;2.35;;
24567;SDS011;12731;52.182;8.716;2024-03-25T11:25:16;9.88;;;2.75;;
24567;SDS011;12731;52.182;8.716;2024-03-25T11:27:43;8.90;;;2.70;;
24567;SDS011;12731;52.182;8.716;2024-03-25T11:30:12;9.10;;;2.97;;
24567;SDS011;12731;52.182;8.716;2024-03-25T11:32:46;7.72;;;1.85;;
24567;SDS011;12731;52.182;8.716;2024-03-25T11:35:12;5.55;;;1.73;;
24567;SDS011;12731;52.182;8.716;2024-03-25T11:37:42;8.07;;;2.72;;
24567;SDS011;12731;52.182;8.716;2024-03-25T11:40:08;6.82;;;1.83;;
24567;SDS011;12731;52.182;8.716;2024-03-25T11:42:39;5.55;;;1.45;;
24567;SDS011;12731;52.182;8.716;2024-03-25T11:45:32;7.40;;;1.80;;
24567;SDS011;12731;52.182;8.716;2024-03-25T11:47:58;5.32;;;1.42;;
24567;SDS011;12731;52.182;8.716;2024-03-25T11:50:23;4.25;;;1.42;;
24567;SDS011;12731;52.182;8.716;2024-03-25T11:52:50;3.58;;;1.10;;
24567;SDS011;12731;52.182;8.716;2024-03-25T11:55:16;5.20;;;1.40;;
24567;SDS011;12731;52.182;8.716;2024-03-25T11:57:43;5.20;;;1.30;;
24567;SDS011;12731;52.182;8.716;2024-03-25T12:00:15;4.32;;;1.25;;
24567;SDS011;12731;52.182;8.716;2024-03-25T12:02:45;4.38;;;1.30;;
24567;SDS011;12731;52.182;8.716;2024-03-25T12:05:11;5.20;;;1.42;;
24567;SDS011;12731;52.182;8.716;2024-03-25T12:07:36;4.80;;;1.25;;
24567;SDS011;12731;52.182;8.716;2024-03-25T12:10:02;6.20;;;1.85;;
24567;SDS011;12731;52.182;8.716;2024-03-25T12:12:47;6.40;;;1.60;;
24567;SDS011;12731;52.182;8.716;2024-03-25T12:15:16;6.07;;;1.50;;
24567;SDS011;12731;52.182;8.716;2024-03-25T12:17:42;5.55;;;1.42;;
24567;SDS011;12731;52.182;8.716;2024-03-25T12:20:20;6.85;;;1.60;;
24567;SDS011;12731;52.182;8.716;2024-03-25T12:23:04;7.13;;;1.50;;
24567;SDS011;12731;52.182;8.716;2024-03-25T12:25:30;5.97;;;1.98;;
24567;SDS011;12731;52.182;8.716;2024-03-25T12:27:59;7.35;;;1.95;;
24567;SDS011;12731;52.182;8.716;2024-03-25T12:30:32;6.43;;;1.88;;
24567;SDS011;12731;52.182;8.716;2024-03-25T12:33:00;4.57;;;1.60;;
24567;SDS011;12731;52.182;8.716;2024-03-25T12:35:29;8.13;;;2.47;;
24567;SDS011;12731;52.182;8.716;2024-03-25T12:38:00;8.02;;;1.85;;
24567;SDS011;12731;52.182;8.716;2024-03-25T12:40:26;7.93;;;1.52;;
24567;SDS011;12731;52.182;8.716;2024-03-25T12:42:52;6.15;;;1.90;;
24567;SDS011;12731;52.182;8.716;2024-03-25T12:45:21;5.88;;;1.67;;
24567;SDS011;12731;52.182;8.716;2024-03-25T12:47:48;8.23;;;2.45;;
24567;SDS011;12731;52.182;8.716;2024-03-25T12:50:15;6.60;;;1.70;;
24567;SDS011;12731;52.182;8.716;2024-03-25T12:52:41;7.00;;;1.98;;
24567;SDS011;12731;52.182;8.716;2024-03-25T12:55:06;6.15;;;1.67;;
24567;SDS011;12731;52.182;8.716;2024-03-25T12:57:32;9.93;;;1.83;;
24567;SDS011;12731;52.182;8.716;2024-03-25T12:59:58;7.28;;;2.03;;
24567;SDS011;12731;52.182;8.716;2024-03-25T13:02:24;6.88;;;2.25;;
24567;SDS011;12731;52.182;8.716;2024-03-25T13:04:49;7.55;;;1.80;;
24567;SDS011;12731;52.182;8.716;2024-03-25T13:07:15;7.05;;;1.83;;
24567;SDS011;12731;52.182;8.716;2024-03-25T13:09:40;5.50;;;1.65;;
24567;SDS011;12731;52.182;8.716;2024-03-25T13:12:06;6.70;;;1.90;;
24567;SDS011;12731;52.182;8.716;2024-03-25T13:14:31;5.97;;;1.80;;
24567;SDS011;12731;52.182;8.716;2024-03-25T13:16:57;6.15;;;2.00;;
24567;SDS011;12731;52.182;8.716;2024-03-25T13:19:22;6.28;;;1.90;;
24567;SDS011;12731;52.182;8.716;2024-03-25T13:21:48;5.88;;;2.05;;
24567;SDS011;12731;52.182;8.716;2024-03-25T13:24:14;8.15;;;2.30;;
24567;SDS011;12731;52.182;8.716;2024-03-25T13:26:39;6.07;;;2.05;;
24567;SDS011;12731;52.182;8.716;2024-03-25T13:29:05;6.38;;;1.80;;
24567;SDS011;12731;52.182;8.716;2024-03-25T13:31:33;7.75;;;1.92;;
24567;SDS011;12731;52.182;8.716;2024-03-25T13:33:59;6.32;;;1.77;;
24567;SDS011;12731;52.182;8.716;2024-03-25T13:36:24;7.75;;;1.63;;
24567;SDS011;12731;52.182;8.716;2024-03-25T13:38:50;7.18;;;1.95;;
24567;SDS011;12731;52.182;8.716;2024-03-25T13:41:15;7.20;;;2.15;;
24567;SDS011;12731;52.182;8.716;2024-03-25T13:43:43;9.02;;;1.95;;
24567;SDS011;12731;52.182;8.716;2024-03-25T13:46:09;7.47;;;1.80;;
24567;SDS011;12731;52.182;8.716;2024-03-25T13:48:34;6.13;;;2.03;;
24567;SDS011;12731;52.182;8.716;2024-03-25T13:51:00;5.80;;;1.63;;
24567;SDS011;12731;52.182;8.716;2024-03-25T13:53:25;7.10;;;1.92;;
24567;SDS011;12731;52.182;8.716;2024-03-25T13:55:51;4.88;;;1.80;;
24567;SDS011;12731;52.182;8.716;2024-03-25T13:58:17;4.28;;;1.42;;
24567;SDS011;12731;52.182;8.716;2024-03-25T14:00:42;5.57;;;1.67;;
24567;SDS011;12731;52.182;8.716;2024-03-25T14:03:08;5.47;;;2.00;;
24567;SDS011;12731;52.182;8.716;2024-03-25T14:05:34;14.07;;;4.80;;
24567;SDS011;12731;52.182;8.716;2024-03-25T14:07:59;5.93;;;2.13;;
24567;SDS011;12731;52.182;8.716;2024-03-25T14:10:25;7.38;;;2.83;;
24567;SDS011;12731;52.182;8.716;2024-03-25T14:12:50;6.95;;;2.60;;
24567;SDS011;12731;52.182;8.716;2024-03-25T14:15:16;6.35;;;2.38;;
24567;SDS011;12731;52.182;8.716;2024-03-25T14:17:41;11.57;;;5.57;;
24567;SDS011;12731;52.182;8.716;2024-03-25T14:20:07;8.30;;;3.53;;
24567;SDS011;12731;52.182;8.716;2024-03-25T14:22:33;6.35;;;3.00;;
24567;SDS011;12731;52.182;8.716;2024-03-25T14:24:59;5.20;;;1.70;;
24567;SDS011;12731;52.182;8.716;2024-03-25T14:27:25;5.00;;;1.48;;
24567;SDS011;12731;52.182;8.716;2024-03-25T14:29:51;5.57;;;1.55;;
24567;SDS011;12731;52.182;8.716;2024-03-25T14:32:20;6.05;;;1.85;;
24567;SDS011;12731;52.182;8.716;2024-03-25T14:34:46;6.72;;;1.90;;
24567;SDS011;12731;52.182;8.716;2024-03-25T14:37:12;7.55;;;1.95;;
24567;SDS011;12731;52.182;8.716;2024-03-25T14:39:38;6.90;;;2.10;;
24567;SDS011;12731;52.182;8.716;2024-03-25T14:42:03;6.47;;;2.00;;
24567;SDS011;12731;52.182;8.716;2024-03-25T14:44:29;8.00;;;2.00;;